Waikoloa, HI (96738)

8:33 PM HST on August 31, 2015 (GMT -1000)
RAWS | | Change Station
CLOSE
Current Station
Personal Weather Station
Location: Waikoloa, HI
Elevation: 2222 ft
Nearby Weather Stations

Elev 2222 ft 19.80 °N, 155.85 °W | Updated 78 days ago

Clear
Clear
76 °F
Feels Like 76 °F
N
5
Wind Variable Wind from NW
Gusts mph

Today
High -- | Low -- °F
--% Chance of Precip.
Yesterday
High -- | Low -- °F
Precip. -- in
6:07 AM 6:39 PM
Waning Gibbous, 91% visible
Pressure 29.82 in
Visibility 10.0 miles
Clouds Clear
Dew Point 60 °F
Humidity 56%
Rainfall in
Snow Depth Not available.
UV 0 out of 12
Pollen Not available.
Air Quality Not available.
Flu Activity Not available.
METAR PHKO 010553Z 13004KT 10SM CLR 29/25 A2981 RMK AO2 SLP096 T02940250 10333 20294 51005
Pressure 29.82 in
Visibility 10.0 miles
Clouds Clear
Dew Point 60 °F
Humidity 56%
Rainfall in
Snow Depth Not available.
UV 0 out of 12
Pollen Not available.
Air Quality Not available.
Flu Activity Not available.
METAR PHKO 010553Z 13004KT 10SM CLR 29/25 A2981 RMK AO2 SLP096 T02940250 10333 20294 51005

10-Day Weather Forecast

×

Almanac

Astronomy

Aug. 31, 2015 Rise Set
Actual Time
Civil Twilight
Nautical Twilight
Astronomical Twilight
Moon
Length of Visible Light
Length of Day
Tomorrow will be .
, % of the Moon is Illuminated

Today's Extremes

State Highs State Lows

Community

WunderPhotos

Upload Photos

1,851,488 photos uploaded!

WunderBlogs® & News

Nearby

Air Quality

  Air Quality AQ Index Pollutant
Not available.

Snow Depth

Station Depth Elevation

Earthquake Activity

City Distance Mag. Time & Date
Minimum magnitude displayed is 2.5.

Coastal Water Temperatures

Place Temperature

Stations

Nearby Weather Stations

Station Location Temp. Windchill Dew Point Humidity Wind Precip. Elev Updated Type